createdAt,value
2022-08-26T00:00:21.461Z,7.54
2022-08-26T00:01:24.329Z,7.29
2022-08-26T00:02:30.252Z,8.00
2022-08-26T00:03:32.858Z,7.49
2022-08-26T00:04:35.294Z,7.32
2022-08-26T00:05:37.742Z,7.35
2022-08-26T00:06:42.551Z,6.86
2022-08-26T00:07:45.376Z,7.39
2022-08-26T00:08:47.917Z,6.97
2022-08-26T00:09:54.459Z,7.36
2022-08-26T00:10:57.917Z,7.38
2022-08-26T00:12:02.820Z,7.00
2022-08-26T00:13:05.455Z,7.08
2022-08-26T00:14:08.030Z,7.17
2022-08-26T00:15:11.312Z,7.37
2022-08-26T00:16:14.785Z,7.84
2022-08-26T00:17:17.273Z,7.40
2022-08-26T00:18:22.612Z,7.80
2022-08-26T00:19:24.094Z,7.05
2022-08-26T00:20:28.093Z,7.85
2022-08-26T00:21:30.593Z,7.56
2022-08-26T00:22:34.070Z,8.16
2022-08-26T00:23:36.635Z,7.03
2022-08-26T00:24:39.200Z,7.71
2022-08-26T00:25:42.558Z,7.37
2022-08-26T00:26:45.771Z,7.13
2022-08-26T00:27:50.437Z,7.41
2022-08-26T00:28:54.810Z,7.24
2022-08-26T00:29:57.299Z,7.89
2022-08-26T00:31:00.970Z,7.04
2022-08-26T00:32:04.087Z,7.36
2022-08-26T00:33:07.178Z,6.73
2022-08-26T00:34:09.843Z,7.81
2022-08-26T00:35:13.824Z,7.48
2022-08-26T00:36:20.278Z,7.99
2022-08-26T00:37:22.328Z,7.79
2022-08-26T00:38:24.739Z,7.27
2022-08-26T00:39:27.295Z,7.59
2022-08-26T00:40:32.777Z,7.11
2022-08-26T00:41:37.396Z,7.44
2022-08-26T00:42:39.975Z,7.29
2022-08-26T00:43:47.737Z,8.31
2022-08-26T00:44:51.161Z,7.37
2022-08-26T00:45:58.180Z,7.57
2022-08-26T00:47:02.428Z,6.72
2022-08-26T00:48:04.888Z,7.34
2022-08-26T00:49:11.679Z,7.75
2022-08-26T00:50:16.358Z,6.42
2022-08-26T00:51:19.939Z,7.01
2022-08-26T00:52:22.626Z,7.63
2022-08-26T00:53:27.960Z,7.36
2022-08-26T00:54:33.949Z,7.00
2022-08-26T00:55:38.263Z,7.94
2022-08-26T00:56:43.326Z,7.08
2022-08-26T00:57:45.860Z,7.34
2022-08-26T00:58:48.326Z,7.03
2022-08-26T00:59:53.191Z,7.69
2022-08-26T01:00:56.277Z,7.67
2022-08-26T01:01:59.001Z,7.45
2022-08-26T01:04:16.977Z,7.35
2022-08-26T01:05:19.570Z,7.35
2022-08-26T01:06:26.739Z,7.09
2022-08-26T01:07:30.184Z,6.92
2022-08-26T01:08:33.710Z,6.87
2022-08-26T01:09:37.135Z,7.10
2022-08-26T01:10:40.165Z,7.47
2022-08-26T01:11:42.841Z,7.41
2022-08-26T01:12:47.021Z,7.41
2022-08-26T01:13:50.522Z,7.22
2022-08-26T01:14:53.188Z,7.41
2022-08-26T01:15:56.425Z,7.11
2022-08-26T01:17:00.524Z,7.12
2022-08-26T01:18:03.815Z,7.36
2022-08-26T01:19:08.208Z,7.36
2022-08-26T01:20:13.887Z,7.69
2022-08-26T01:22:46.185Z,7.88
2022-08-26T01:23:51.954Z,7.41
2022-08-26T01:24:56.373Z,7.64
2022-08-26T01:26:02.482Z,7.88
2022-08-26T01:27:06.853Z,7.31
2022-08-26T01:28:11.754Z,7.28
2022-08-26T01:29:16.036Z,7.62
2022-08-26T01:30:20.555Z,7.04
2022-08-26T01:31:25.042Z,6.45
2022-08-26T01:32:29.837Z,7.53
2022-08-26T01:33:42.180Z,7.52
2022-08-26T01:34:41.246Z,7.16
2022-08-26T01:35:44.332Z,7.08
2022-08-26T01:36:51.181Z,6.59
2022-08-26T01:37:52.368Z,7.48
2022-08-26T01:38:55.431Z,7.17
2022-08-26T01:39:57.918Z,6.70
2022-08-26T01:41:00.947Z,7.79
2022-08-26T01:42:10.345Z,7.25
2022-08-26T01:43:13.773Z,7.41
2022-08-26T01:44:17.732Z,7.63
2022-08-26T01:45:21.313Z,7.51
2022-08-26T01:46:25.772Z,7.78
2022-08-26T01:47:30.106Z,8.01
2022-08-26T01:48:33.556Z,7.02
2022-08-26T01:49:36.139Z,7.25
2022-08-26T01:50:40.463Z,6.82
2022-08-26T01:51:44.185Z,6.77
2022-08-26T01:52:48.110Z,7.49
2022-08-26T01:53:51.384Z,7.55
2022-08-26T01:54:54.533Z,6.81
2022-08-26T01:55:58.230Z,6.89
2022-08-26T01:57:00.997Z,6.86
2022-08-26T01:58:05.682Z,6.83
2022-08-26T01:59:09.436Z,7.08
2022-08-26T02:00:16.225Z,6.98
2022-08-26T02:01:19.483Z,6.49
2022-08-26T02:02:22.206Z,7.05
2022-08-26T02:03:26.635Z,7.47
2022-08-26T02:04:31.078Z,6.86
2022-08-26T02:05:33.628Z,6.73
2022-08-26T02:06:39.737Z,7.11
2022-08-26T02:07:42.549Z,7.67
2022-08-26T02:09:56.984Z,7.22
2022-08-26T02:10:59.635Z,6.93
2022-08-26T02:12:03.197Z,7.11
2022-08-26T02:13:07.649Z,8.22
2022-08-26T02:14:12.581Z,8.65
2022-08-26T02:15:15.358Z,7.71
2022-08-26T02:16:20.784Z,8.23
2022-08-26T02:17:28.237Z,7.64
2022-08-26T02:18:32.728Z,8.01
2022-08-26T02:19:36.701Z,8.22
2022-08-26T02:20:39.375Z,7.53
2022-08-26T02:21:42.137Z,7.96
2022-08-26T02:22:45.751Z,7.10
2022-08-26T02:23:48.327Z,7.55
2022-08-26T02:24:52.684Z,8.10
2022-08-26T02:26:12.296Z,8.35
2022-08-26T02:27:17.064Z,7.33
2022-08-26T02:28:19.860Z,7.41
2022-08-26T02:29:29.205Z,7.28
2022-08-26T02:30:34.162Z,7.97
2022-08-26T02:31:36.969Z,7.33
2022-08-26T02:32:41.340Z,7.56
2022-08-26T02:33:43.841Z,7.04
2022-08-26T02:34:46.410Z,6.94
2022-08-26T02:35:48.985Z,7.01
2022-08-26T02:36:51.736Z,7.26
2022-08-26T02:37:54.193Z,6.55
2022-08-26T02:38:59.705Z,6.98
2022-08-26T02:40:03.470Z,7.07
2022-08-26T02:41:06.097Z,6.96
2022-08-26T02:42:10.369Z,7.61
2022-08-26T02:43:12.922Z,7.34
2022-08-26T02:44:15.396Z,7.01
2022-08-26T02:45:17.839Z,7.24
2022-08-26T02:46:29.868Z,7.18
2022-08-26T02:47:30.681Z,7.34
2022-08-26T02:48:34.983Z,6.89
2022-08-26T02:49:38.567Z,7.16
2022-08-26T02:50:41.265Z,6.91
2022-08-26T02:51:45.440Z,6.93
2022-08-26T02:52:48.008Z,7.26
2022-08-26T02:53:50.495Z,7.39
2022-08-26T02:54:53.565Z,6.70
2022-08-26T02:55:56.051Z,7.14
2022-08-26T02:56:58.729Z,7.27
2022-08-26T02:58:02.820Z,8.55
2022-08-26T02:59:05.487Z,8.03
2022-08-26T03:00:11.702Z,8.39
2022-08-26T03:02:35.624Z,7.97
2022-08-26T03:03:38.202Z,8.55
2022-08-26T03:04:41.253Z,8.13
2022-08-26T03:05:45.569Z,7.81
2022-08-26T03:06:52.678Z,7.79
2022-08-26T03:07:52.668Z,7.46
2022-08-26T03:08:56.456Z,6.90
2022-08-26T03:09:59.012Z,7.68
2022-08-26T03:11:02.096Z,7.45
2022-08-26T03:12:04.739Z,8.04
2022-08-26T03:13:07.616Z,7.61
2022-08-26T03:14:13.010Z,7.30
2022-08-26T03:15:17.929Z,7.49
2022-08-26T03:16:21.870Z,7.86
2022-08-26T03:17:26.923Z,7.40
2022-08-26T03:18:29.589Z,7.57
2022-08-26T03:19:32.841Z,7.57
2022-08-26T03:20:37.550Z,7.40
2022-08-26T03:21:40.002Z,7.72
2022-08-26T03:22:44.380Z,7.54
2022-08-26T03:23:46.824Z,7.94
2022-08-26T03:24:49.421Z,8.12
2022-08-26T03:25:52.062Z,7.50
2022-08-26T03:26:55.034Z,7.41
2022-08-26T03:27:57.516Z,7.49
2022-08-26T03:29:02.112Z,6.89
2022-08-26T03:30:05.667Z,7.55
2022-08-26T03:31:08.382Z,7.99
2022-08-26T03:32:11.053Z,7.90
2022-08-26T03:33:13.521Z,7.66
2022-08-26T03:34:16.027Z,7.79
2022-08-26T03:36:28.549Z,8.31
2022-08-26T03:37:31.826Z,8.39
2022-08-26T03:38:34.680Z,7.66
2022-08-26T03:40:49.384Z,7.49
2022-08-26T03:41:53.486Z,8.01
2022-08-26T03:42:56.665Z,8.31
2022-08-26T03:45:11.367Z,7.76
2022-08-26T03:46:14.606Z,8.37
2022-08-26T03:47:17.118Z,8.80
2022-08-26T03:48:21.505Z,9.04
2022-08-26T03:49:23.951Z,9.21
2022-08-26T03:50:28.526Z,8.41
2022-08-26T03:51:31.284Z,8.65
2022-08-26T03:52:33.838Z,8.91
2022-08-26T03:53:36.403Z,8.85
2022-08-26T03:54:39.642Z,8.95
2022-08-26T03:55:42.413Z,9.26
2022-08-26T03:56:46.598Z,8.92
2022-08-26T03:57:49.345Z,8.83
2022-08-26T03:58:53.051Z,9.39
2022-08-26T03:59:55.481Z,9.29
2022-08-26T04:00:58.659Z,9.33
2022-08-26T04:02:01.346Z,8.47
2022-08-26T04:03:04.264Z,9.53
2022-08-26T04:04:08.074Z,8.43
2022-08-26T04:05:11.460Z,9.07
2022-08-26T04:06:16.672Z,9.02
2022-08-26T04:07:19.445Z,8.96
2022-08-26T04:08:24.497Z,8.44
2022-08-26T04:09:28.783Z,8.51
2022-08-26T04:10:31.464Z,8.12
2022-08-26T04:11:34.318Z,7.99
2022-08-26T04:12:37.389Z,8.41
2022-08-26T04:13:41.259Z,8.21
2022-08-26T04:14:43.690Z,8.41
2022-08-26T04:15:47.145Z,8.31
2022-08-26T04:16:51.577Z,8.29
2022-08-26T04:17:54.334Z,7.89
2022-08-26T04:18:58.731Z,7.81
2022-08-26T04:20:02.194Z,8.08
2022-08-26T04:21:05.140Z,8.71
2022-08-26T04:22:09.537Z,8.05
2022-08-26T04:23:15.443Z,7.76
2022-08-26T04:24:20.726Z,7.21
2022-08-26T04:25:24.223Z,7.15
2022-08-26T04:26:28.816Z,7.01
2022-08-26T04:27:33.151Z,7.20
2022-08-26T04:28:35.521Z,7.34
2022-08-26T04:29:39.303Z,7.08
2022-08-26T04:30:44.135Z,7.01
2022-08-26T04:31:46.701Z,7.12
2022-08-26T04:32:50.753Z,7.42
2022-08-26T04:33:53.306Z,6.95
2022-08-26T04:34:55.805Z,7.02
2022-08-26T04:36:00.981Z,7.21
2022-08-26T04:37:04.985Z,6.79
2022-08-26T04:38:08.289Z,7.26
2022-08-26T04:39:11.040Z,6.97
2022-08-26T04:40:14.040Z,6.70
2022-08-26T04:41:17.171Z,7.36
2022-08-26T04:42:22.792Z,9.30
2022-08-26T04:43:24.758Z,9.23
2022-08-26T04:44:28.721Z,9.96
2022-08-26T04:45:31.340Z,11.56
2022-08-26T04:46:35.763Z,12.47
2022-08-26T04:47:42.665Z,12.38
2022-08-26T04:48:46.081Z,9.86
2022-08-26T04:49:48.729Z,11.95
2022-08-26T04:50:51.490Z,15.22
2022-08-26T04:51:54.050Z,17.61
2022-08-26T04:52:57.753Z,16.74
2022-08-26T04:54:00.456Z,18.24
2022-08-26T04:55:03.488Z,19.03
2022-08-26T04:56:08.203Z,20.76
2022-08-26T04:57:11.637Z,19.60
2022-08-26T04:58:14.916Z,14.84
2022-08-26T04:59:18.177Z,9.95
2022-08-26T05:00:21.786Z,10.99
2022-08-26T05:01:24.447Z,11.85
2022-08-26T05:02:27.547Z,9.76
2022-08-26T05:03:31.209Z,9.13
2022-08-26T05:04:34.029Z,7.00
2022-08-26T05:05:39.776Z,12.74
2022-08-26T05:06:42.438Z,10.88
2022-08-26T05:07:46.808Z,6.64
2022-08-26T05:08:51.194Z,8.24
2022-08-26T05:09:55.594Z,7.12
2022-08-26T05:10:58.654Z,6.05
2022-08-26T05:12:03.322Z,6.24
2022-08-26T05:13:11.188Z,6.44
2022-08-26T05:14:10.273Z,7.20
2022-08-26T05:15:14.765Z,5.88
2022-08-26T05:16:17.666Z,6.55
2022-08-26T05:17:20.409Z,6.07
2022-08-26T05:18:23.253Z,5.89
2022-08-26T05:19:27.974Z,6.26
2022-08-26T05:20:31.142Z,6.21
2022-08-26T05:21:33.797Z,6.83
2022-08-26T05:22:38.114Z,6.29
2022-08-26T05:23:40.669Z,6.73
2022-08-26T05:24:43.773Z,5.87
2022-08-26T05:25:46.534Z,6.35
2022-08-26T05:26:49.320Z,6.51
2022-08-26T05:27:51.881Z,5.47
2022-08-26T05:28:54.844Z,5.70
2022-08-26T05:29:57.972Z,5.23
2022-08-26T05:31:00.876Z,5.21
2022-08-26T05:32:03.878Z,5.39
2022-08-26T05:33:08.457Z,5.91
2022-08-26T05:34:12.081Z,5.03
2022-08-26T05:35:15.100Z,5.59
2022-08-26T05:36:19.797Z,5.05
2022-08-26T05:37:24.013Z,5.34
2022-08-26T05:38:26.817Z,5.11
2022-08-26T05:40:43.770Z,5.48
2022-08-26T05:41:46.422Z,5.36
2022-08-26T05:42:48.873Z,5.59
2022-08-26T05:43:51.586Z,5.71
2022-08-26T05:44:56.052Z,5.54
2022-08-26T05:46:00.371Z,5.55
2022-08-26T05:47:04.956Z,5.13
2022-08-26T05:48:07.721Z,5.69
2022-08-26T05:49:12.258Z,5.51
2022-08-26T05:50:16.637Z,5.35
2022-08-26T05:51:22.795Z,5.29
2022-08-26T05:52:25.911Z,5.59
2022-08-26T05:53:27.855Z,5.46
2022-08-26T05:54:30.444Z,5.44
2022-08-26T05:55:33.004Z,5.81
2022-08-26T05:56:35.955Z,5.31
2022-08-26T05:57:42.842Z,4.97
2022-08-26T05:58:42.857Z,5.69
2022-08-26T05:59:47.175Z,5.76
2022-08-26T06:01:04.710Z,5.26
2022-08-26T06:02:08.516Z,5.17
2022-08-26T06:03:11.609Z,5.16
2022-08-26T06:04:14.132Z,5.21
2022-08-26T06:05:16.696Z,4.82
2022-08-26T06:06:27.205Z,4.90
2022-08-26T06:07:25.054Z,4.89
2022-08-26T06:08:29.904Z,5.15
2022-08-26T06:09:32.306Z,4.69
2022-08-26T06:10:35.443Z,5.07
2022-08-26T06:11:38.020Z,5.43
2022-08-26T06:12:40.505Z,4.59
2022-08-26T06:13:44.090Z,4.75
2022-08-26T06:14:46.547Z,5.29
2022-08-26T06:15:50.965Z,5.24
2022-08-26T06:16:54.023Z,5.28
2022-08-26T06:18:00.741Z,5.22
2022-08-26T06:19:03.551Z,4.94
2022-08-26T06:20:09.011Z,4.92
2022-08-26T06:21:15.736Z,4.83
2022-08-26T06:22:22.315Z,5.83
2022-08-26T06:23:23.264Z,5.39
2022-08-26T06:24:27.213Z,5.23
2022-08-26T06:25:30.129Z,5.02
2022-08-26T06:26:33.922Z,5.41
2022-08-26T06:27:41.317Z,4.94
2022-08-26T06:28:45.578Z,4.46
2022-08-26T06:29:48.109Z,5.14
2022-08-26T06:30:50.891Z,4.74
2022-08-26T06:31:53.718Z,5.04
2022-08-26T06:32:56.280Z,4.77
2022-08-26T06:34:00.799Z,5.20
2022-08-26T06:35:03.722Z,4.78
2022-08-26T06:36:08.549Z,5.20
2022-08-26T06:37:11.777Z,5.05
2022-08-26T06:38:14.340Z,5.49
2022-08-26T06:39:16.786Z,5.55
2022-08-26T06:40:19.951Z,4.62
2022-08-26T06:41:23.918Z,4.79
2022-08-26T06:42:27.615Z,5.06
2022-08-26T06:43:30.181Z,5.05
2022-08-26T06:44:35.630Z,5.07
2022-08-26T06:45:38.533Z,4.57
2022-08-26T06:46:41.263Z,5.11
2022-08-26T06:47:43.883Z,5.23
2022-08-26T06:48:46.538Z,4.91
2022-08-26T06:49:49.501Z,5.07
2022-08-26T06:52:14.853Z,5.40
2022-08-26T06:53:19.250Z,4.86
2022-08-26T06:54:24.332Z,5.33
2022-08-26T06:55:27.207Z,5.08
2022-08-26T06:56:34.070Z,4.71
2022-08-26T06:57:37.776Z,4.88
2022-08-26T06:58:41.130Z,5.14
2022-08-26T06:59:44.137Z,5.09
2022-08-26T07:00:47.486Z,4.67
2022-08-26T07:01:50.580Z,5.17
2022-08-26T07:02:55.775Z,5.62
2022-08-26T07:04:01.183Z,4.61
2022-08-26T07:05:04.370Z,4.86
2022-08-26T07:06:09.029Z,5.35
2022-08-26T07:07:14.353Z,4.75
2022-08-26T07:08:17.099Z,4.48
2022-08-26T07:09:20.405Z,5.08
2022-08-26T07:10:24.077Z,6.65
2022-08-26T07:11:26.745Z,6.41
2022-08-26T07:12:34.322Z,6.56
2022-08-26T07:13:37.904Z,7.26
2022-08-26T07:14:40.486Z,7.61
2022-08-26T07:15:44.899Z,8.38
2022-08-26T07:16:47.810Z,5.91
2022-08-26T07:17:50.288Z,7.72
2022-08-26T07:18:52.868Z,6.86
2022-08-26T07:19:55.389Z,6.95
2022-08-26T07:21:00.016Z,5.49
2022-08-26T07:22:04.813Z,6.03
2022-08-26T07:23:07.673Z,6.61
2022-08-26T07:24:11.871Z,6.19
2022-08-26T07:25:14.321Z,5.35
2022-08-26T07:26:22.957Z,5.64
2022-08-26T07:27:27.358Z,4.86
2022-08-26T07:28:31.048Z,6.50
2022-08-26T07:29:33.973Z,6.10
2022-08-26T07:30:39.981Z,6.44
2022-08-26T07:31:43.657Z,6.72
2022-08-26T07:32:46.100Z,5.69
2022-08-26T07:33:48.658Z,5.88
2022-08-26T07:34:51.445Z,4.81
2022-08-26T07:35:53.909Z,4.37
2022-08-26T07:36:56.658Z,4.70
2022-08-26T07:37:59.113Z,4.74
2022-08-26T07:39:03.487Z,4.61
2022-08-26T07:40:06.790Z,5.07
2022-08-26T07:41:09.760Z,4.79
2022-08-26T07:42:13.051Z,5.23
2022-08-26T07:43:16.621Z,4.69
2022-08-26T07:44:19.601Z,5.46
2022-08-26T07:45:22.296Z,4.56
2022-08-26T07:46:27.208Z,4.75
2022-08-26T07:48:46.203Z,4.33
2022-08-26T07:49:48.788Z,4.58
2022-08-26T07:50:55.137Z,4.44
2022-08-26T07:52:00.019Z,4.81
2022-08-26T07:53:02.791Z,4.39
2022-08-26T07:54:05.258Z,5.15
2022-08-26T07:55:08.153Z,4.81
2022-08-26T07:56:11.537Z,4.67
2022-08-26T07:57:14.127Z,4.20
2022-08-26T07:58:16.774Z,4.65
2022-08-26T07:59:19.611Z,4.63
2022-08-26T08:00:24.366Z,4.21
2022-08-26T08:01:27.204Z,4.60
2022-08-26T08:02:30.932Z,4.61
2022-08-26T08:03:33.721Z,4.51
2022-08-26T08:04:36.760Z,4.99
2022-08-26T08:05:41.256Z,4.35
2022-08-26T08:06:43.733Z,4.83
2022-08-26T08:07:47.000Z,4.63
2022-08-26T08:08:50.903Z,4.26
2022-08-26T08:09:54.313Z,4.08
2022-08-26T08:10:57.977Z,4.01
2022-08-26T08:12:02.409Z,4.19
2022-08-26T08:13:05.243Z,4.17
2022-08-26T08:14:08.522Z,3.91
2022-08-26T08:15:11.378Z,4.62
2022-08-26T08:16:14.449Z,4.12
2022-08-26T08:18:31.845Z,4.89
2022-08-26T08:19:37.001Z,3.74
2022-08-26T08:21:50.593Z,4.86
2022-08-26T08:22:53.885Z,4.15
2022-08-26T08:23:59.800Z,4.34
2022-08-26T08:25:08.147Z,3.79
2022-08-26T08:27:01.286Z,4.62
2022-08-26T08:28:03.754Z,4.00
2022-08-26T08:29:06.419Z,4.23
2022-08-26T08:30:10.771Z,4.24
2022-08-26T08:31:21.633Z,3.61
2022-08-26T08:32:23.159Z,4.33
2022-08-26T08:33:25.817Z,4.13
2022-08-26T08:34:28.492Z,3.58
2022-08-26T08:35:31.603Z,4.33
2022-08-26T08:36:36.221Z,5.02
2022-08-26T08:37:39.125Z,3.39
2022-08-26T08:38:45.480Z,3.58
2022-08-26T08:39:49.020Z,3.29
2022-08-26T08:40:51.970Z,3.62
2022-08-26T08:42:05.320Z,3.87
2022-08-26T08:43:14.642Z,3.39
2022-08-26T08:44:19.086Z,3.26
2022-08-26T08:45:23.490Z,3.68
2022-08-26T08:46:26.919Z,3.58
2022-08-26T08:47:36.557Z,3.73
2022-08-26T08:48:43.262Z,3.69
2022-08-26T08:49:45.758Z,4.02
2022-08-26T08:50:49.009Z,3.57
2022-08-26T08:51:57.195Z,3.74
2022-08-26T08:53:09.023Z,3.94
2022-08-26T08:55:17.402Z,3.79
2022-08-26T08:56:19.476Z,4.08
2022-08-26T08:57:27.358Z,3.35
2022-08-26T08:58:31.889Z,3.45
2022-08-26T08:59:35.297Z,3.69
2022-08-26T09:00:44.411Z,3.47
2022-08-26T09:02:06.478Z,3.49
2022-08-26T09:04:22.960Z,3.05
2022-08-26T09:05:27.866Z,2.96
2022-08-26T09:06:30.949Z,3.35
2022-08-26T09:07:36.665Z,3.21
2022-08-26T09:08:39.805Z,2.80
2022-08-26T09:09:46.619Z,2.71
2022-08-26T09:10:53.978Z,3.07
2022-08-26T09:11:56.582Z,3.00
2022-08-26T09:12:59.425Z,2.85
2022-08-26T09:14:03.937Z,3.58
2022-08-26T09:16:33.312Z,2.73
2022-08-26T09:17:40.898Z,2.86
2022-08-26T09:18:51.268Z,2.78
2022-08-26T09:19:54.502Z,2.87
2022-08-26T09:21:01.771Z,2.95
2022-08-26T09:22:09.362Z,3.08
2022-08-26T09:23:09.865Z,3.01
2022-08-26T09:24:13.870Z,2.54
2022-08-26T09:25:16.781Z,2.96
2022-08-26T09:26:30.660Z,3.34
2022-08-26T09:27:35.540Z,2.92
2022-08-26T09:28:42.390Z,2.60
2022-08-26T09:29:44.975Z,2.87
2022-08-26T09:32:18.550Z,2.40
2022-08-26T09:33:21.350Z,2.59
2022-08-26T09:34:24.807Z,2.51
2022-08-26T09:35:36.443Z,2.75
2022-08-26T09:36:41.591Z,2.17
2022-08-26T09:38:48.937Z,1.95
2022-08-26T09:39:52.680Z,2.55
2022-08-26T09:41:03.418Z,2.28
2022-08-26T09:42:23.161Z,2.04
2022-08-26T09:43:25.745Z,2.20
2022-08-26T09:44:30.107Z,2.10
2022-08-26T09:45:33.435Z,2.37
2022-08-26T09:46:36.898Z,2.02
2022-08-26T09:47:40.662Z,2.17
2022-08-26T09:48:43.138Z,2.10
2022-08-26T09:49:45.675Z,2.28
2022-08-26T09:50:50.542Z,2.36
2022-08-26T09:52:12.975Z,1.85
2022-08-26T09:53:16.688Z,2.44
2022-08-26T09:54:25.216Z,2.39
2022-08-26T09:55:29.499Z,2.47
2022-08-26T09:56:33.349Z,1.87
2022-08-26T09:57:37.894Z,2.11
2022-08-26T09:58:41.926Z,1.95
2022-08-26T09:59:44.814Z,2.33
2022-08-26T10:00:57.975Z,1.83
2022-08-26T10:02:20.589Z,2.54
2022-08-26T10:04:39.024Z,2.10
2022-08-26T10:05:45.959Z,2.62
2022-08-26T10:06:57.202Z,1.66
2022-08-26T10:09:29.814Z,2.06
2022-08-26T10:10:44.066Z,1.85
2022-08-26T10:11:51.575Z,2.58
2022-08-26T10:14:15.992Z,2.02
2022-08-26T10:15:18.491Z,2.03
2022-08-26T10:16:25.452Z,1.64
2022-08-26T10:17:48.702Z,1.55
2022-08-26T10:18:59.440Z,1.82
2022-08-26T10:20:24.953Z,1.68
2022-08-26T10:22:40.299Z,1.61
2022-08-26T10:23:45.150Z,1.52
2022-08-26T10:24:54.509Z,1.62
2022-08-26T10:25:59.078Z,1.49
2022-08-26T10:29:38.873Z,1.72
2022-08-26T10:30:44.297Z,1.49
2022-08-26T10:31:51.905Z,1.54
2022-08-26T10:32:55.163Z,1.79
2022-08-26T10:34:00.466Z,1.37
2022-08-26T10:35:02.846Z,2.12
2022-08-26T10:36:06.344Z,1.51
2022-08-26T10:38:29.274Z,1.71
2022-08-26T10:39:34.022Z,1.92
2022-08-26T10:40:38.958Z,1.71
2022-08-26T10:41:42.389Z,1.99
2022-08-26T10:43:11.171Z,1.72
2022-08-26T10:44:10.010Z,1.76
2022-08-26T10:45:15.053Z,1.46
2022-08-26T10:46:20.795Z,1.46
2022-08-26T10:47:24.312Z,1.85
2022-08-26T10:49:51.533Z,1.26
2022-08-26T10:50:54.310Z,0.99
2022-08-26T10:52:01.665Z,1.58
2022-08-26T10:53:25.413Z,1.30
2022-08-26T10:54:31.178Z,1.33
2022-08-26T10:55:35.480Z,1.59
2022-08-26T10:58:09.107Z,1.14
2022-08-26T10:59:13.789Z,0.86
2022-08-26T11:00:27.689Z,0.99
2022-08-26T11:01:36.156Z,1.29
2022-08-26T11:02:41.539Z,0.91
2022-08-26T11:03:47.775Z,1.26
2022-08-26T11:04:56.112Z,1.37
2022-08-26T11:06:17.418Z,1.28
2022-08-26T11:07:38.431Z,1.16
2022-08-26T11:08:50.786Z,1.39
2022-08-26T11:09:57.065Z,0.93
2022-08-26T11:10:59.838Z,1.24
2022-08-26T11:12:10.023Z,1.38
2022-08-26T11:13:07.242Z,1.12
2022-08-26T11:14:10.716Z,0.93
2022-08-26T11:15:24.478Z,1.20
2022-08-26T11:16:37.345Z,1.06
2022-08-26T11:17:46.275Z,1.30
2022-08-26T11:18:51.395Z,1.64
2022-08-26T11:20:08.967Z,1.29
2022-08-26T11:21:02.250Z,1.27
2022-08-26T11:22:06.136Z,1.61
2022-08-26T11:23:13.528Z,1.27
2022-08-26T11:24:35.283Z,1.82
2022-08-26T11:25:59.691Z,1.50
2022-08-26T11:27:02.698Z,1.32
2022-08-26T11:28:06.472Z,1.86
2022-08-26T11:29:12.845Z,2.17
2022-08-26T11:30:18.509Z,2.07
2022-08-26T11:31:25.446Z,1.99
2022-08-26T11:32:36.155Z,1.50
2022-08-26T11:33:49.115Z,1.59
2022-08-26T11:36:11.983Z,1.69
2022-08-26T11:39:52.672Z,1.83
2022-08-26T11:42:10.070Z,2.08
2022-08-26T11:44:25.291Z,1.81
2022-08-26T11:46:51.622Z,1.61
2022-08-26T11:47:57.770Z,1.66
2022-08-26T11:49:00.858Z,1.99
2022-08-26T11:51:20.601Z,1.78
2022-08-26T11:52:23.090Z,1.51
2022-08-26T11:53:26.204Z,1.88
2022-08-26T11:54:35.203Z,1.66
2022-08-26T11:55:33.949Z,1.64
2022-08-26T11:56:36.820Z,1.83
2022-08-26T11:57:42.293Z,1.60
2022-08-26T11:58:44.878Z,1.58
2022-08-26T11:59:47.451Z,1.93
2022-08-26T12:02:15.253Z,1.87
2022-08-26T12:03:19.193Z,3.96
2022-08-26T12:04:23.785Z,1.60
2022-08-26T12:05:31.196Z,1.74
2022-08-26T12:07:48.281Z,1.76
2022-08-26T12:08:51.363Z,1.65
2022-08-26T12:09:58.541Z,1.93
2022-08-26T12:12:08.984Z,1.39
2022-08-26T12:14:28.027Z,1.32
2022-08-26T12:15:31.115Z,1.37
2022-08-26T12:17:48.529Z,1.28
2022-08-26T12:18:50.299Z,1.26
2022-08-26T12:19:52.749Z,1.25
2022-08-26T12:21:00.982Z,1.42
2022-08-26T12:23:34.233Z,1.40
2022-08-26T12:24:40.466Z,1.62
2022-08-26T12:25:42.977Z,1.39
2022-08-26T12:26:47.958Z,1.91
2022-08-26T12:27:53.756Z,1.25
2022-08-26T12:28:57.476Z,1.71
2022-08-26T12:30:03.236Z,1.59
2022-08-26T12:31:06.297Z,1.70
2022-08-26T12:33:22.694Z,2.03
2022-08-26T12:34:25.195Z,1.42
2022-08-26T12:35:29.680Z,1.63
2022-08-26T12:36:37.348Z,1.92
2022-08-26T12:38:58.097Z,1.43
2022-08-26T12:40:17.849Z,1.73
2022-08-26T12:41:42.862Z,1.69
2022-08-26T12:43:55.542Z,2.15
2022-08-26T12:44:59.148Z,1.36
2022-08-26T12:46:04.502Z,1.26
2022-08-26T12:47:13.713Z,1.67
2022-08-26T12:49:28.793Z,1.47
2022-08-26T12:50:32.487Z,1.62
2022-08-26T12:51:36.421Z,1.75
2022-08-26T12:53:01.074Z,2.12
2022-08-26T12:54:03.996Z,2.08
2022-08-26T12:55:07.661Z,1.57
2022-08-26T12:56:19.332Z,1.39
2022-08-26T12:57:24.085Z,1.39
2022-08-26T12:58:31.304Z,1.25
2022-08-26T12:59:33.933Z,1.41
2022-08-26T13:00:37.530Z,1.59
2022-08-26T13:01:43.475Z,1.51
2022-08-26T13:02:46.282Z,1.49
2022-08-26T13:03:49.150Z,1.59
2022-08-26T13:04:56.522Z,1.26
2022-08-26T13:06:16.613Z,1.78
2022-08-26T13:07:23.041Z,1.56
2022-08-26T13:08:26.679Z,1.93
2022-08-26T13:09:29.509Z,1.67
2022-08-26T13:10:34.531Z,1.39
2022-08-26T13:11:43.412Z,1.45
2022-08-26T13:12:45.949Z,1.44
2022-08-26T13:13:58.963Z,1.46
2022-08-26T13:15:01.765Z,1.72
2022-08-26T13:16:05.095Z,1.82
2022-08-26T13:17:07.841Z,1.54
2022-08-26T13:18:10.594Z,1.89
2022-08-26T13:19:17.315Z,1.86
2022-08-26T13:20:20.305Z,1.95
2022-08-26T13:21:27.908Z,1.64
2022-08-26T13:22:31.174Z,1.82
2022-08-26T13:23:33.862Z,1.78
2022-08-26T13:24:37.422Z,2.16
2022-08-26T13:25:39.937Z,1.62
2022-08-26T13:26:43.588Z,1.98
2022-08-26T13:27:51.446Z,1.93
2022-08-26T13:29:02.198Z,2.42
2022-08-26T13:30:00.989Z,1.91
2022-08-26T13:31:03.934Z,1.97
2022-08-26T13:32:08.216Z,1.94
2022-08-26T13:33:12.269Z,1.83
2022-08-26T13:34:17.129Z,2.36
2022-08-26T13:35:19.859Z,1.57
2022-08-26T13:37:35.606Z,1.91
2022-08-26T13:38:38.386Z,1.91
2022-08-26T13:39:41.523Z,1.67
2022-08-26T13:40:46.271Z,1.84
2022-08-26T13:41:51.081Z,1.73
2022-08-26T13:42:53.707Z,1.69
2022-08-26T13:43:56.624Z,1.83
2022-08-26T13:45:00.866Z,1.62
2022-08-26T13:46:03.945Z,1.88
2022-08-26T13:47:06.575Z,1.51
2022-08-26T13:48:09.323Z,1.85
2022-08-26T13:49:14.696Z,1.53
2022-08-26T13:50:19.273Z,2.15
2022-08-26T13:51:21.997Z,1.55
2022-08-26T13:52:25.519Z,1.64
2022-08-26T13:53:29.003Z,1.91
2022-08-26T13:54:31.722Z,2.01
2022-08-26T13:55:34.211Z,1.70
2022-08-26T13:56:36.933Z,2.13
2022-08-26T13:57:43.803Z,1.48
2022-08-26T13:58:46.839Z,1.76
2022-08-26T13:59:50.649Z,1.53
2022-08-26T14:00:54.889Z,1.75
2022-08-26T14:01:57.588Z,1.37
2022-08-26T14:03:01.612Z,1.83
2022-08-26T14:04:04.379Z,1.73
2022-08-26T14:05:07.477Z,1.69
2022-08-26T14:06:11.988Z,2.13
2022-08-26T14:07:14.613Z,1.98
2022-08-26T14:08:17.416Z,1.81
2022-08-26T14:09:19.972Z,1.55
2022-08-26T14:10:23.421Z,1.67
2022-08-26T14:11:25.950Z,1.74
2022-08-26T14:12:28.580Z,1.52
2022-08-26T14:13:31.202Z,1.76
2022-08-26T14:14:33.729Z,1.66
2022-08-26T14:15:36.458Z,1.91
2022-08-26T14:16:39.218Z,1.52
2022-08-26T14:17:43.966Z,1.87
2022-08-26T14:18:50.627Z,1.78
2022-08-26T14:19:51.472Z,1.38
2022-08-26T14:20:54.211Z,1.81
2022-08-26T14:21:56.772Z,2.15
2022-08-26T14:23:14.747Z,1.34
2022-08-26T14:24:04.235Z,1.92
2022-08-26T14:25:07.376Z,1.98
2022-08-26T14:26:10.475Z,1.52
2022-08-26T14:27:14.987Z,1.82
2022-08-26T14:28:17.630Z,1.89
2022-08-26T14:29:20.211Z,1.37
2022-08-26T14:30:23.898Z,1.45
2022-08-26T14:31:30.158Z,1.55
2022-08-26T14:32:32.832Z,1.61
2022-08-26T14:33:35.972Z,1.32
2022-08-26T14:34:39.216Z,1.55
2022-08-26T14:35:47.903Z,1.92
2022-08-26T14:36:46.213Z,1.85
2022-08-26T14:37:48.904Z,2.96
2022-08-26T14:38:51.567Z,1.52
2022-08-26T14:39:54.110Z,1.40
2022-08-26T14:40:59.586Z,1.61
2022-08-26T14:42:02.317Z,1.54
2022-08-26T14:43:04.918Z,1.83
2022-08-26T14:44:09.518Z,1.86
2022-08-26T14:45:12.658Z,1.86
2022-08-26T14:46:16.202Z,1.69
2022-08-26T14:47:18.935Z,1.57
2022-08-26T14:48:21.666Z,1.60
2022-08-26T14:50:35.960Z,1.62
2022-08-26T14:51:38.963Z,1.78
2022-08-26T14:52:41.653Z,1.87
2022-08-26T14:54:56.687Z,1.91
2022-08-26T14:55:59.257Z,1.94
2022-08-26T14:57:03.932Z,2.09
2022-08-26T14:58:06.913Z,2.00
2022-08-26T14:59:09.697Z,1.85
2022-08-26T15:00:12.845Z,2.29
2022-08-26T15:01:15.758Z,1.72
2022-08-26T15:02:32.429Z,2.02
2022-08-26T15:03:22.922Z,1.65
2022-08-26T15:04:26.873Z,1.70
2022-08-26T15:05:29.452Z,1.79
2022-08-26T15:06:32.608Z,1.92
2022-08-26T15:07:35.370Z,1.91
2022-08-26T15:08:38.003Z,1.65
2022-08-26T15:09:40.730Z,2.16
2022-08-26T15:10:43.670Z,2.16
2022-08-26T15:11:47.724Z,1.84
2022-08-26T15:12:50.761Z,1.68
2022-08-26T15:13:53.491Z,1.73
2022-08-26T15:15:00.314Z,1.77
2022-08-26T15:16:04.518Z,1.52